createdAt,value
2022-10-26T18:39:38.399Z,13.4
2022-10-26T18:45:23.733Z,13.4
2022-10-26T18:51:07.626Z,13.1
2022-10-26T18:56:17.542Z,13
2022-10-26T19:01:58.486Z,12.7
2022-10-26T19:07:25.760Z,12.6
2022-10-26T19:12:20.582Z,12.4
2022-10-26T19:18:00.888Z,12.3
2022-10-26T19:29:08.295Z,12.3
2022-10-26T19:34:52.532Z,12.3
2022-10-26T19:40:35.529Z,12.4
2022-10-26T19:45:58.322Z,11.6
2022-10-26T19:51:21.387Z,11.4
2022-10-26T19:56:43.481Z,10.8
2022-10-26T20:01:51.287Z,10.6
2022-10-26T20:07:14.437Z,10.3
2022-10-26T20:12:55.259Z,10.7
2022-10-26T20:18:19.256Z,10.7
2022-10-26T20:23:42.784Z,10.6
2022-10-26T20:29:08.068Z,10.4
2022-10-26T20:34:30.988Z,10.2
2022-10-26T20:39:38.775Z,10
2022-10-26T20:45:07.044Z,10
2022-10-26T20:50:44.591Z,10.1
2022-10-26T20:56:51.679Z,10.1
2022-10-26T21:02:14.202Z,9.9
2022-10-26T21:07:36.456Z,9.8
2022-10-26T21:13:19.308Z,9.6
2022-10-26T21:18:26.329Z,9.8
2022-10-26T21:23:47.255Z,9.8
2022-10-26T21:29:25.493Z,9.6
2022-10-26T21:35:06.130Z,9.4
2022-10-26T21:40:12.891Z,9.5
2022-10-26T21:46:09.209Z,9.3
2022-10-26T21:51:45.959Z,9.2
2022-10-26T21:57:24.247Z,9.1
2022-10-26T22:02:48.367Z,8.9
2022-10-26T22:07:55.785Z,8.5
2022-10-26T22:13:36.979Z,8.2
2022-10-26T22:18:59.626Z,8.2
2022-10-26T22:28:42.475Z,8.3
2022-10-26T22:34:07.300Z,8.3
2022-10-26T22:39:45.655Z,8.3
2022-10-26T22:45:22.261Z,8.3
